createdAt,value
2018-06-14T00:00:41.062Z,16.27
2018-06-14T00:02:16.681Z,16.25
2018-06-14T00:03:52.674Z,16.25
2018-06-14T00:05:28.279Z,16.37
2018-06-14T00:07:05.106Z,16.30
2018-06-14T00:08:40.702Z,16.42
2018-06-14T00:10:16.324Z,16.50
2018-06-14T00:11:51.892Z,16.51
2018-06-14T00:13:27.508Z,16.52
2018-06-14T00:15:03.208Z,16.53
2018-06-14T00:16:38.832Z,16.52
2018-06-14T00:18:14.428Z,16.52
2018-06-14T00:19:50.075Z,16.55
2018-06-14T00:21:25.683Z,16.50
2018-06-14T00:23:01.329Z,16.54
2018-06-14T00:24:36.930Z,16.51
2018-06-14T00:26:12.546Z,16.51
2018-06-14T00:27:48.138Z,16.48
2018-06-14T00:29:23.752Z,16.43
2018-06-14T00:30:59.356Z,16.32
2018-06-14T00:32:34.936Z,16.25
2018-06-14T00:34:10.554Z,16.22
2018-06-14T00:35:46.124Z,16.22
2018-06-14T00:37:21.948Z,16.21
2018-06-14T00:38:57.487Z,16.19
2018-06-14T00:40:33.239Z,16.30
2018-06-14T00:42:08.875Z,16.31
2018-06-14T00:43:44.417Z,16.24
2018-06-14T00:45:20.015Z,16.22
2018-06-14T00:46:55.603Z,16.23
2018-06-14T00:48:31.183Z,16.19
2018-06-14T00:50:06.775Z,16.21
2018-06-14T00:51:42.396Z,16.20
2018-06-14T00:53:17.980Z,16.19
2018-06-14T00:54:53.574Z,16.17
2018-06-14T00:56:31.277Z,16.18
2018-06-14T00:58:06.858Z,16.21
2018-06-14T00:59:42.560Z,16.27
2018-06-14T01:01:18.244Z,16.25
2018-06-14T01:02:53.883Z,16.31
2018-06-14T01:04:29.623Z,16.13
2018-06-14T01:06:05.306Z,16.25
2018-06-14T01:07:40.893Z,16.30
2018-06-14T01:09:16.523Z,16.32
2018-06-14T01:10:52.111Z,16.25
2018-06-14T01:12:27.746Z,16.26
2018-06-14T01:14:03.325Z,16.26
2018-06-14T01:15:38.942Z,16.19
2018-06-14T01:17:14.526Z,16.19
2018-06-14T01:18:50.104Z,16.24
2018-06-14T01:20:25.676Z,16.28
2018-06-14T01:22:01.285Z,16.33
2018-06-14T01:23:36.862Z,16.28
2018-06-14T01:25:12.518Z,16.26
2018-06-14T01:26:48.117Z,16.16
2018-06-14T01:28:23.736Z,16.19
2018-06-14T01:29:59.330Z,16.20
2018-06-14T01:31:34.942Z,16.23
2018-06-14T01:33:10.608Z,16.23
2018-06-14T01:34:46.162Z,16.22
2018-06-14T01:36:21.851Z,16.24
2018-06-14T01:38:08.519Z,16.22
2018-06-14T01:39:44.161Z,16.19
2018-06-14T01:41:19.816Z,16.16
2018-06-14T01:42:55.395Z,16.18
2018-06-14T01:44:31.003Z,16.24
2018-06-14T01:46:06.602Z,16.15
2018-06-14T01:47:42.188Z,16.15
2018-06-14T01:49:18.084Z,16.01
2018-06-14T01:50:53.649Z,16.01
2018-06-14T01:52:29.287Z,16.10
2018-06-14T01:54:04.899Z,16.11
2018-06-14T01:55:40.553Z,16.06
2018-06-14T01:57:16.159Z,15.95
2018-06-14T01:58:51.723Z,15.88
2018-06-14T02:00:27.337Z,16.01
2018-06-14T02:02:02.913Z,15.92
2018-06-14T02:03:38.526Z,15.93
2018-06-14T02:05:14.303Z,15.92
2018-06-14T02:06:49.870Z,15.96
2018-06-14T02:08:25.491Z,15.94
2018-06-14T02:10:01.167Z,15.89
2018-06-14T02:11:36.777Z,15.78
2018-06-14T02:13:12.360Z,15.97
2018-06-14T02:14:49.013Z,15.96
2018-06-14T02:16:24.685Z,16.00
2018-06-14T02:18:00.554Z,16.01
2018-06-14T02:19:36.237Z,15.88
2018-06-14T02:21:11.848Z,15.85
2018-06-14T02:22:47.429Z,15.92
2018-06-14T02:24:23.302Z,15.86
2018-06-14T02:25:58.895Z,15.80
2018-06-14T02:27:34.503Z,15.82
2018-06-14T02:29:10.152Z,15.83
2018-06-14T02:30:45.792Z,15.92
2018-06-14T02:32:21.433Z,15.92
2018-06-14T02:33:57.003Z,15.96
2018-06-14T02:35:32.579Z,15.98
2018-06-14T02:37:08.214Z,15.99
2018-06-14T02:38:43.825Z,15.96
2018-06-14T02:40:19.417Z,16.04
2018-06-14T02:41:55.069Z,15.98
2018-06-14T02:43:30.677Z,15.82
2018-06-14T02:45:06.531Z,15.88
2018-06-14T02:46:42.106Z,15.92
2018-06-14T02:48:18.094Z,15.95
2018-06-14T02:49:53.691Z,15.94
2018-06-14T02:51:29.325Z,15.84
2018-06-14T02:53:04.853Z,15.82
2018-06-14T02:54:40.416Z,15.89
2018-06-14T02:56:15.997Z,15.97
2018-06-14T02:57:51.596Z,15.85
2018-06-14T02:59:27.207Z,15.83
2018-06-14T03:01:02.823Z,15.88
2018-06-14T03:02:38.406Z,15.85
2018-06-14T03:04:13.973Z,15.82
2018-06-14T03:05:49.566Z,15.79
2018-06-14T03:07:30.377Z,15.83
2018-06-14T03:09:07.710Z,15.79
2018-06-14T03:10:43.255Z,15.69
2018-06-14T03:12:18.816Z,15.79
2018-06-14T03:13:54.341Z,15.79
2018-06-14T03:15:29.988Z,15.86
2018-06-14T03:17:05.621Z,15.93
2018-06-14T03:18:41.205Z,15.93
2018-06-14T03:20:20.072Z,15.87
2018-06-14T03:21:55.656Z,15.89
2018-06-14T03:23:31.662Z,16.02
2018-06-14T03:25:07.206Z,15.91
2018-06-14T03:26:42.811Z,15.91
2018-06-14T03:28:18.379Z,15.87
2018-06-14T03:29:53.978Z,15.96
2018-06-14T03:31:29.624Z,15.96
2018-06-14T03:33:05.195Z,15.86
2018-06-14T03:34:40.769Z,15.86
2018-06-14T03:36:16.340Z,15.85
2018-06-14T03:37:51.986Z,15.84
2018-06-14T03:39:27.635Z,15.87
2018-06-14T03:41:03.243Z,15.76
2018-06-14T03:42:42.766Z,15.71
2018-06-14T03:44:18.333Z,15.82
2018-06-14T03:45:53.894Z,15.89
2018-06-14T03:47:29.561Z,16.02
2018-06-14T03:49:05.221Z,16.04
2018-06-14T03:50:40.786Z,16.13
2018-06-14T03:52:16.368Z,16.16
2018-06-14T03:53:53.109Z,16.10
2018-06-14T03:55:28.768Z,16.19
2018-06-14T03:57:04.399Z,16.23
2018-06-14T03:58:39.983Z,16.27
2018-06-14T04:00:15.603Z,16.31
2018-06-14T04:01:51.218Z,16.31
2018-06-14T04:03:26.768Z,16.36
2018-06-14T04:05:02.848Z,16.19
2018-06-14T04:06:38.410Z,16.17
2018-06-14T04:08:13.997Z,16.23
2018-06-14T04:09:49.592Z,16.26
2018-06-14T04:11:25.123Z,16.35
2018-06-14T04:13:00.686Z,16.42
2018-06-14T04:14:36.250Z,16.45
2018-06-14T04:16:11.984Z,16.43
2018-06-14T04:17:51.706Z,16.47
2018-06-14T04:19:28.267Z,16.54
2018-06-14T04:21:03.803Z,16.52
2018-06-14T04:22:39.420Z,16.47
2018-06-14T04:24:14.941Z,16.47
2018-06-14T04:25:50.464Z,16.46
2018-06-14T04:27:25.996Z,16.35
2018-06-14T04:29:01.603Z,16.38
2018-06-14T04:30:37.506Z,16.42
2018-06-14T04:32:13.372Z,16.50
2018-06-14T04:33:49.116Z,16.50
2018-06-14T04:35:24.712Z,16.46
2018-06-14T04:37:00.280Z,16.47
2018-06-14T04:38:35.894Z,16.51
2018-06-14T04:40:11.448Z,16.46
2018-06-14T04:41:46.971Z,16.52
2018-06-14T04:43:22.676Z,16.54
2018-06-14T04:45:00.717Z,16.53
2018-06-14T04:46:38.277Z,16.55
2018-06-14T04:48:14.197Z,16.69
2018-06-14T04:49:50.008Z,16.68
2018-06-14T04:51:25.677Z,16.64
2018-06-14T04:53:04.758Z,16.72
2018-06-14T04:54:41.443Z,16.72
2018-06-14T04:56:18.007Z,16.85
2018-06-14T04:57:53.604Z,16.83
2018-06-14T04:59:29.215Z,16.93
2018-06-14T05:01:06.066Z,16.88
2018-06-14T05:02:42.019Z,16.93
2018-06-14T05:04:17.587Z,16.77
2018-06-14T05:05:53.999Z,16.80
2018-06-14T05:07:29.813Z,16.83
2018-06-14T05:09:09.724Z,17.04
2018-06-14T05:10:45.475Z,17.10
2018-06-14T05:12:22.494Z,17.10
2018-06-14T05:13:58.200Z,17.23
2018-06-14T05:15:34.141Z,17.34
2018-06-14T05:17:11.031Z,17.42
2018-06-14T05:18:46.709Z,17.39
2018-06-14T05:20:22.729Z,17.26
2018-06-14T05:21:58.462Z,17.16
2018-06-14T05:23:34.140Z,17.16
2018-06-14T05:25:09.760Z,17.33
2018-06-14T05:26:45.383Z,17.36
2018-06-14T05:28:21.056Z,17.43
2018-06-14T05:29:56.686Z,17.46
2018-06-14T05:31:32.318Z,17.45
2018-06-14T05:33:07.966Z,17.43
2018-06-14T05:34:43.655Z,17.43
2018-06-14T05:36:19.269Z,17.45
2018-06-14T05:37:54.873Z,17.47
2018-06-14T05:39:30.508Z,17.47
2018-06-14T05:41:06.502Z,17.67
2018-06-14T05:42:42.245Z,17.60
2018-06-14T05:44:17.923Z,17.45
2018-06-14T05:45:53.534Z,17.53
2018-06-14T05:47:29.432Z,17.63
2018-06-14T05:49:06.548Z,17.65
2018-06-14T05:50:42.111Z,17.75
2018-06-14T05:52:17.720Z,17.50
2018-06-14T05:53:53.327Z,17.68
2018-06-14T05:55:30.095Z,17.85
2018-06-14T05:57:05.714Z,18.07
2018-06-14T05:58:41.548Z,18.28
2018-06-14T06:00:19.610Z,18.31
2018-06-14T06:01:55.237Z,18.37
2018-06-14T06:03:30.936Z,18.27
2018-06-14T06:05:06.741Z,18.41
2018-06-14T06:06:42.409Z,18.52
2018-06-14T06:08:18.024Z,18.27
2018-06-14T06:09:53.684Z,18.03
2018-06-14T06:11:29.296Z,17.91
2018-06-14T06:13:11.207Z,18.04
2018-06-14T06:14:46.845Z,18.09
2018-06-14T06:16:22.557Z,17.99
2018-06-14T06:24:18.532Z,18.34
2018-06-14T06:25:54.147Z,18.51
2018-06-14T06:27:29.843Z,18.53
2018-06-14T06:29:05.499Z,18.44
2018-06-14T06:30:41.842Z,18.62
2018-06-14T06:32:17.734Z,18.69
2018-06-14T06:33:53.355Z,18.63
2018-06-14T06:35:29.142Z,18.37
2018-06-14T06:37:04.875Z,18.47
2018-06-14T06:38:41.630Z,18.69
2018-06-14T06:40:18.112Z,18.73
2018-06-14T06:41:53.857Z,18.87
2018-06-14T06:43:29.584Z,18.94
2018-06-14T06:45:06.813Z,19.13
2018-06-14T06:46:43.834Z,19.29
2018-06-14T06:48:19.720Z,19.48
2018-06-14T06:49:55.316Z,19.67
2018-06-14T06:51:31.200Z,19.71
2018-06-14T06:53:06.992Z,19.45
2018-06-14T06:54:43.325Z,19.23
2018-06-14T06:56:19.062Z,19.45
2018-06-14T06:57:54.783Z,19.81
2018-06-14T06:59:30.467Z,20.11
2018-06-14T07:01:06.089Z,20.33
2018-06-14T07:02:41.754Z,20.15
2018-06-14T07:04:17.478Z,20.30
2018-06-14T07:05:53.187Z,20.57
2018-06-14T07:07:28.781Z,20.88
2018-06-14T07:09:07.687Z,21.05
2018-06-14T07:10:43.355Z,21.33
2018-06-14T07:12:19.097Z,21.40
2018-06-14T07:13:54.754Z,21.42
2018-06-14T07:15:30.705Z,21.37
2018-06-14T07:17:09.133Z,21.38
2018-06-14T07:18:45.752Z,21.26
2018-06-14T07:20:21.404Z,21.32
2018-06-14T07:22:01.214Z,21.31
2018-06-14T07:23:38.811Z,21.09
2018-06-14T07:25:14.553Z,21.18
2018-06-14T07:26:51.098Z,21.35
2018-06-14T07:28:26.785Z,21.17
2018-06-14T07:30:02.396Z,21.14
2018-06-14T07:31:38.072Z,21.41
2018-06-14T07:33:14.407Z,20.96
2018-06-14T07:34:50.036Z,20.92
2018-06-14T07:36:25.699Z,20.49
2018-06-14T07:38:01.383Z,20.52
2018-06-14T07:39:39.639Z,20.72
2018-06-14T07:41:15.388Z,21.13
2018-06-14T07:42:51.089Z,20.77
2018-06-14T07:44:26.826Z,20.50
2018-06-14T07:46:02.628Z,20.52
2018-06-14T07:47:38.549Z,20.85
2018-06-14T07:49:14.190Z,20.78
2018-06-14T07:50:50.399Z,20.89
2018-06-14T07:52:28.600Z,21.22
2018-06-14T07:54:04.397Z,21.16
2018-06-14T07:55:40.769Z,21.42
2018-06-14T07:57:16.609Z,21.11
2018-06-14T07:58:53.174Z,21.43
2018-06-14T08:00:29.509Z,21.63
2018-06-14T08:02:05.970Z,21.96
2018-06-14T08:03:42.777Z,22.14
2018-06-14T08:05:18.733Z,22.44
2018-06-14T08:06:54.537Z,22.45
2018-06-14T08:08:31.348Z,22.03
2018-06-14T08:10:07.661Z,22.24
2018-06-14T08:11:43.418Z,22.00
2018-06-14T08:13:19.513Z,21.71
2018-06-14T08:14:55.163Z,21.67
2018-06-14T08:16:30.849Z,21.52
2018-06-14T08:18:07.123Z,21.16
2018-06-14T08:19:44.305Z,20.95
2018-06-14T08:21:20.096Z,21.00
2018-06-14T08:22:55.668Z,21.26
2018-06-14T08:24:31.296Z,21.23
2018-06-14T08:26:13.144Z,21.39
2018-06-14T08:27:48.771Z,21.45
2018-06-14T08:29:27.872Z,21.56
2018-06-14T08:31:03.556Z,21.57
2018-06-14T08:32:39.152Z,21.56
2018-06-14T08:34:14.820Z,21.78
2018-06-14T08:35:50.444Z,21.75
2018-06-14T08:37:28.295Z,21.38
2018-06-14T08:39:05.410Z,21.69
2018-06-14T08:40:41.069Z,21.86
2018-06-14T08:42:16.640Z,21.92
2018-06-14T08:43:52.207Z,22.05
2018-06-14T08:45:27.897Z,22.09
2018-06-14T08:47:03.552Z,22.31
2018-06-14T08:48:39.499Z,22.27
2018-06-14T08:50:15.072Z,22.10
2018-06-14T08:51:50.748Z,22.10
2018-06-14T08:53:26.372Z,22.04
2018-06-14T08:55:02.307Z,22.04
2018-06-14T08:56:37.871Z,21.84
2018-06-14T08:58:13.464Z,22.03
2018-06-14T08:59:49.132Z,21.80
2018-06-14T09:01:24.740Z,21.37
2018-06-14T09:03:00.312Z,21.36
2018-06-14T09:04:35.931Z,21.37
2018-06-14T09:06:11.600Z,21.15
2018-06-14T09:07:47.219Z,20.64
2018-06-14T09:09:23.017Z,20.54
2018-06-14T09:10:58.632Z,20.70
2018-06-14T09:12:34.222Z,20.66
2018-06-14T09:14:10.578Z,20.74
2018-06-14T09:15:46.208Z,20.97
2018-06-14T09:17:21.938Z,20.90
2018-06-14T09:18:57.581Z,21.16
2018-06-14T09:20:35.299Z,21.10
2018-06-14T09:22:10.951Z,21.12
2018-06-14T09:23:46.537Z,21.24
2018-06-14T09:25:22.184Z,21.47
2018-06-14T09:26:57.786Z,21.60
2018-06-14T09:28:34.091Z,21.64
2018-06-14T09:30:09.961Z,21.63
2018-06-14T09:31:45.517Z,21.66
2018-06-14T09:33:21.089Z,21.61
2018-06-14T09:34:56.688Z,21.98
2018-06-14T09:36:33.382Z,21.65
2018-06-14T09:38:09.889Z,21.61
2018-06-14T09:39:45.551Z,21.41
2018-06-14T09:41:21.211Z,21.26
2018-06-14T09:42:56.946Z,21.72
2018-06-14T09:44:32.467Z,22.30
2018-06-14T09:46:08.086Z,22.56
2018-06-14T09:47:43.748Z,22.84
2018-06-14T09:49:19.388Z,22.66
2018-06-14T09:50:56.452Z,22.55
2018-06-14T09:52:32.176Z,22.38
2018-06-14T09:54:07.883Z,22.00
2018-06-14T09:55:43.936Z,21.97
2018-06-14T09:57:19.637Z,22.33
2018-06-14T09:58:56.985Z,22.36
2018-06-14T10:00:32.539Z,22.72
2018-06-14T10:02:07.935Z,22.77
2018-06-14T10:03:43.547Z,22.91
2018-06-14T10:05:19.242Z,23.35
2018-06-14T10:06:54.909Z,23.59
2018-06-14T10:08:30.543Z,23.37
2018-06-14T10:10:06.256Z,23.72
2018-06-14T10:11:41.885Z,23.66
2018-06-14T10:13:17.539Z,23.60
2018-06-14T10:14:53.117Z,23.23
2018-06-14T10:16:28.780Z,23.57
2018-06-14T10:18:04.396Z,23.83
2018-06-14T10:25:56.231Z,23.27
2018-06-14T10:27:32.038Z,23.51
2018-06-14T10:29:07.682Z,23.65
2018-06-14T10:30:43.286Z,23.72
2018-06-14T10:32:19.030Z,23.98
2018-06-14T10:33:54.652Z,23.84
2018-06-14T10:35:30.292Z,23.72
2018-06-14T10:37:06.369Z,23.97
2018-06-14T10:38:42.541Z,23.94
2018-06-14T10:40:18.439Z,23.99
2018-06-14T10:41:54.169Z,23.67
2018-06-14T10:43:29.953Z,23.89
2018-06-14T10:45:05.592Z,23.71
2018-06-14T10:50:53.987Z,23.59
2018-06-14T10:52:29.597Z,23.25
2018-06-14T10:54:05.249Z,23.40
2018-06-14T10:55:40.941Z,23.20
2018-06-14T10:57:17.128Z,23.04
2018-06-14T10:58:53.760Z,22.92
2018-06-14T11:00:29.580Z,22.82
2018-06-14T11:02:06.314Z,22.62
2018-06-14T11:03:43.021Z,22.14
2018-06-14T11:05:18.664Z,22.22
2018-06-14T11:06:55.265Z,22.22
2018-06-14T11:08:31.712Z,22.43
2018-06-14T11:10:07.385Z,22.62
2018-06-14T11:11:43.721Z,22.31
2018-06-14T11:13:20.664Z,21.99
2018-06-14T11:14:57.488Z,21.90
2018-06-14T11:16:33.152Z,21.98
2018-06-14T11:18:09.578Z,21.91
2018-06-14T11:19:45.482Z,21.71
2018-06-14T11:21:21.142Z,22.13
2018-06-14T11:22:56.848Z,22.49
2018-06-14T11:24:32.542Z,22.37
2018-06-14T11:26:12.509Z,22.61
2018-06-14T11:27:52.265Z,22.64
2018-06-14T11:29:28.096Z,22.88
2018-06-14T11:31:03.731Z,22.76
2018-06-14T11:32:39.468Z,22.49
2018-06-14T11:34:17.018Z,22.66
2018-06-14T11:35:56.085Z,22.68
2018-06-14T11:37:34.100Z,22.60
2018-06-14T11:39:10.820Z,22.39
2018-06-14T11:40:47.483Z,22.07
2018-06-14T11:42:23.287Z,21.89
2018-06-14T11:43:59.211Z,21.70
2018-06-14T11:45:35.157Z,21.83
2018-06-14T11:47:10.965Z,22.03
2018-06-14T11:48:47.918Z,21.98
2018-06-14T11:50:24.025Z,22.13
2018-06-14T11:51:59.770Z,22.01
2018-06-14T11:53:35.445Z,21.59
2018-06-14T11:55:11.871Z,21.07
2018-06-14T11:56:47.956Z,21.15
2018-06-14T11:58:23.595Z,21.21
2018-06-14T11:59:59.206Z,21.56
2018-06-14T12:01:35.012Z,21.78
2018-06-14T12:03:10.801Z,21.67
2018-06-14T12:04:46.516Z,21.63
2018-06-14T12:06:22.341Z,21.71
2018-06-14T12:07:57.945Z,21.80
2018-06-14T12:09:34.505Z,21.75
2018-06-14T12:11:10.693Z,21.85
2018-06-14T12:12:48.835Z,22.11
2018-06-14T12:16:30.531Z,21.93
2018-06-14T12:18:06.174Z,21.85
2018-06-14T12:19:41.770Z,21.88
2018-06-14T12:21:18.660Z,21.78
2018-06-14T12:22:55.051Z,21.75
2018-06-14T12:24:32.464Z,21.85
2018-06-14T12:26:09.140Z,21.90
2018-06-14T12:27:47.408Z,21.82
2018-06-14T12:29:23.028Z,21.74
2018-06-14T12:30:58.665Z,21.96
2018-06-14T12:32:34.331Z,21.89
2018-06-14T12:34:11.156Z,21.77
2018-06-14T12:35:46.751Z,21.85
2018-06-14T12:37:22.431Z,21.83
2018-06-14T12:38:58.040Z,22.05
2018-06-14T12:40:34.633Z,22.15
2018-06-14T12:42:10.378Z,22.14
2018-06-14T12:43:47.737Z,22.23
2018-06-14T12:45:23.395Z,22.09
2018-06-14T12:46:59.224Z,21.99
2018-06-14T12:48:34.886Z,22.06
2018-06-14T12:50:10.772Z,22.16
2018-06-14T12:51:47.857Z,22.37
2018-06-14T12:53:23.603Z,22.44
2018-06-14T12:55:13.628Z,22.51
2018-06-14T12:56:49.601Z,22.45
2018-06-14T12:58:25.603Z,22.46
2018-06-14T13:00:02.248Z,22.18
2018-06-14T13:01:37.972Z,22.04
2018-06-14T13:03:13.849Z,22.15
2018-06-14T13:04:49.571Z,22.24
2018-06-14T13:06:26.338Z,22.34
2018-06-14T13:08:02.016Z,22.43
2018-06-14T13:09:38.825Z,22.42
2018-06-14T13:11:14.561Z,22.41
2018-06-14T13:12:50.225Z,22.50
2018-06-14T13:16:49.988Z,22.27
2018-06-14T13:18:26.146Z,22.54
2018-06-14T13:20:02.548Z,22.48
2018-06-14T13:21:43.786Z,22.36
2018-06-14T13:23:20.689Z,22.42
2018-06-14T13:24:56.838Z,22.39
2018-06-14T13:26:33.844Z,22.52
2018-06-14T13:28:09.482Z,22.21
2018-06-14T13:29:45.262Z,22.28
2018-06-14T13:31:21.222Z,22.47
2018-06-14T13:32:56.941Z,22.28
2018-06-14T13:34:33.227Z,22.45
2018-06-14T13:36:15.317Z,22.50
2018-06-14T13:37:51.531Z,22.40
2018-06-14T13:39:28.291Z,22.36
2018-06-14T13:41:04.349Z,22.48
2018-06-14T13:42:41.522Z,22.59
2018-06-14T13:44:23.541Z,22.49
2018-06-14T13:45:59.207Z,22.50
2018-06-14T13:47:43.296Z,22.61
2018-06-14T13:49:20.098Z,22.68
2018-06-14T13:50:56.013Z,22.56
2018-06-14T13:52:46.557Z,22.71
2018-06-14T13:54:23.335Z,22.79
2018-06-14T13:56:02.329Z,22.57
2018-06-14T13:57:44.407Z,22.45
2018-06-14T14:01:11.756Z,22.44
2018-06-14T14:02:49.769Z,22.38
2018-06-14T14:04:27.678Z,22.55
2018-06-14T14:06:03.952Z,22.14
2018-06-14T14:07:39.617Z,22.45
2018-06-14T14:09:15.974Z,22.51
2018-06-14T14:10:52.482Z,22.50
2018-06-14T14:12:29.313Z,22.69
2018-06-14T14:14:05.166Z,22.79
2018-06-14T14:15:41.140Z,22.73
2018-06-14T14:17:18.221Z,22.78
2018-06-14T14:18:54.255Z,22.75
2018-06-14T14:20:30.944Z,22.66
2018-06-14T14:22:06.768Z,22.66
2018-06-14T14:23:42.991Z,22.84
2018-06-14T14:25:19.390Z,22.92
2018-06-14T14:26:55.005Z,22.90
2018-06-14T14:28:30.812Z,22.91
2018-06-14T14:30:06.418Z,22.91
2018-06-14T14:31:44.138Z,23.03
2018-06-14T14:33:20.918Z,23.04
2018-06-14T14:34:56.522Z,22.95
2018-06-14T14:36:32.120Z,22.93
2018-06-14T14:38:07.862Z,22.94
2018-06-14T14:39:43.985Z,22.59
2018-06-14T14:41:19.898Z,22.39
2018-06-14T14:42:55.548Z,22.48
2018-06-14T14:44:31.937Z,22.67
2018-06-14T14:46:07.539Z,22.84
2018-06-14T14:47:44.342Z,22.70
2018-06-14T14:49:20.258Z,22.77
2018-06-14T14:50:56.265Z,22.97
2018-06-14T14:52:31.992Z,22.99
2018-06-14T14:54:07.625Z,22.92
2018-06-14T14:55:43.239Z,23.03
2018-06-14T14:57:18.996Z,23.07
2018-06-14T14:58:55.436Z,23.13
2018-06-14T15:00:31.504Z,23.18
2018-06-14T15:02:08.074Z,23.20
2018-06-14T15:03:43.684Z,23.19
2018-06-14T15:05:19.392Z,23.12
2018-06-14T15:06:55.008Z,23.18
2018-06-14T15:08:30.843Z,23.21
2018-06-14T15:10:06.513Z,23.23
2018-06-14T15:11:42.470Z,23.00
2018-06-14T15:13:18.820Z,23.12
2018-06-14T15:14:54.678Z,22.97
2018-06-14T15:16:33.476Z,22.92
2018-06-14T15:18:09.191Z,22.94
2018-06-14T15:19:44.884Z,23.14
2018-06-14T15:21:20.594Z,23.09
2018-06-14T15:22:57.045Z,23.12
2018-06-14T15:24:33.820Z,23.17
2018-06-14T15:26:09.419Z,23.16
2018-06-14T15:29:52.459Z,23.11
2018-06-14T15:31:28.979Z,22.92
2018-06-14T15:33:05.857Z,23.05
2018-06-14T15:34:42.032Z,23.23
2018-06-14T15:36:18.048Z,23.22
2018-06-14T15:37:53.911Z,23.13
2018-06-14T15:39:30.956Z,23.13
2018-06-14T15:41:06.661Z,23.05
2018-06-14T15:42:42.381Z,23.09
2018-06-14T15:44:19.369Z,23.21
2018-06-14T15:45:55.024Z,23.32
2018-06-14T15:47:31.529Z,23.27
2018-06-14T15:49:08.349Z,23.39
2018-06-14T15:50:44.047Z,23.66
2018-06-14T15:52:19.818Z,23.62
2018-06-14T15:53:56.911Z,23.76
2018-06-14T15:56:01.007Z,23.89
2018-06-14T15:57:37.355Z,24.07
2018-06-14T15:59:14.653Z,24.16
2018-06-14T16:00:51.751Z,24.24
2018-06-14T16:02:28.042Z,24.32
2018-06-14T16:04:04.531Z,24.43
2018-06-14T16:05:41.702Z,24.47
2018-06-14T16:07:17.417Z,24.21
2018-06-14T16:08:53.375Z,24.20
2018-06-14T16:10:31.090Z,24.08
2018-06-14T16:12:11.582Z,24.19
2018-06-14T16:13:49.360Z,24.27
2018-06-14T16:15:25.855Z,24.26
2018-06-14T16:17:02.422Z,24.24
2018-06-14T16:18:38.452Z,24.24
2018-06-14T16:20:20.597Z,24.36
2018-06-14T16:21:57.270Z,24.50
2018-06-14T16:23:33.021Z,24.39
2018-06-14T16:25:09.179Z,24.44
2018-06-14T16:26:45.548Z,24.72
2018-06-14T16:28:27.038Z,24.96
2018-06-14T16:30:04.332Z,25.01
2018-06-14T16:31:40.074Z,25.01
2018-06-14T16:33:15.736Z,24.68
2018-06-14T16:34:51.519Z,24.43
2018-06-14T16:36:28.134Z,24.41
2018-06-14T16:38:03.961Z,24.41
2018-06-14T16:39:40.271Z,24.59
2018-06-14T16:41:16.346Z,24.56
2018-06-14T16:42:52.163Z,24.63
2018-06-14T16:44:27.797Z,24.64
2018-06-14T16:46:04.154Z,24.82
2018-06-14T16:47:39.757Z,24.97
2018-06-14T16:49:15.833Z,24.96
2018-06-14T16:50:51.517Z,24.99
2018-06-14T16:52:27.458Z,24.93
2018-06-14T16:54:03.821Z,24.79
2018-06-14T16:55:39.395Z,24.87
2018-06-14T16:57:15.237Z,24.79
2018-06-14T16:58:51.076Z,24.80
2018-06-14T17:00:26.790Z,24.86
2018-06-14T17:02:02.435Z,24.89
2018-06-14T17:03:38.170Z,24.90
2018-06-14T17:05:14.687Z,24.65
2018-06-14T17:06:50.235Z,24.47
2018-06-14T17:08:25.863Z,24.22
2018-06-14T17:10:02.352Z,24.01
2018-06-14T17:11:38.219Z,23.73
2018-06-14T17:13:14.612Z,23.61
2018-06-14T17:14:50.400Z,23.50
2018-06-14T17:16:26.322Z,23.50
2018-06-14T17:18:02.513Z,23.37
2018-06-14T17:19:38.467Z,23.27
2018-06-14T17:21:14.279Z,23.13
2018-06-14T17:22:50.177Z,22.94
2018-06-14T17:24:25.979Z,22.86
2018-06-14T17:26:06.075Z,22.80
2018-06-14T17:27:42.122Z,22.77
2018-06-14T17:29:23.396Z,22.73
2018-06-14T17:31:07.962Z,22.72
2018-06-14T17:32:44.677Z,22.63
2018-06-14T17:34:38.913Z,22.62
2018-06-14T17:36:18.567Z,22.53
2018-06-14T17:37:55.725Z,22.40
2018-06-14T17:39:33.696Z,22.37
2018-06-14T17:41:10.028Z,22.34
2018-06-14T17:42:47.806Z,22.27
2018-06-14T17:44:23.644Z,22.25
2018-06-14T17:48:19.594Z,22.08
2018-06-14T17:49:55.689Z,22.02
2018-06-14T17:51:55.130Z,22.06
2018-06-14T17:53:33.248Z,22.00
2018-06-14T17:55:10.182Z,21.95
2018-06-14T17:56:45.818Z,21.91
2018-06-14T17:58:21.776Z,21.95
2018-06-14T17:59:57.528Z,22.00
2018-06-14T18:01:33.200Z,21.97
2018-06-14T18:03:08.958Z,21.95
2018-06-14T18:04:44.804Z,21.91
2018-06-14T18:06:35.189Z,21.91
2018-06-14T18:08:17.500Z,21.83
2018-06-14T18:09:53.455Z,21.77
2018-06-14T18:11:29.192Z,21.81
2018-06-14T18:13:05.044Z,21.79
2018-06-14T18:14:40.810Z,21.69
2018-06-14T18:16:16.513Z,21.62
2018-06-14T18:18:02.280Z,21.67
2018-06-14T18:19:37.966Z,21.59
2018-06-14T18:21:13.611Z,21.51
2018-06-14T18:22:49.386Z,21.49
2018-06-14T18:24:25.050Z,21.44
2018-06-14T18:26:00.936Z,21.40
2018-06-14T18:27:37.686Z,21.34
2018-06-14T18:29:13.718Z,21.21
2018-06-14T18:30:49.334Z,21.12
2018-06-14T18:32:25.153Z,21.08
2018-06-14T18:34:00.964Z,21.11
2018-06-14T18:35:37.236Z,21.10
2018-06-14T18:37:13.692Z,21.03
2018-06-14T18:38:49.381Z,20.99
2018-06-14T18:40:25.285Z,20.98
2018-06-14T18:42:01.287Z,20.99
2018-06-14T18:43:37.130Z,20.93
2018-06-14T18:45:12.952Z,20.99
2018-06-14T18:46:49.033Z,20.93
2018-06-14T18:48:24.976Z,20.90
2018-06-14T18:50:00.792Z,20.94
2018-06-14T18:51:36.864Z,20.87
2018-06-14T18:53:13.745Z,20.87
2018-06-14T18:54:49.617Z,20.84
2018-06-14T18:56:25.902Z,20.78
2018-06-14T18:58:01.742Z,20.77
2018-06-14T18:59:40.996Z,20.75
2018-06-14T19:01:17.174Z,20.64
2018-06-14T19:02:54.481Z,20.58
2018-06-14T19:04:30.259Z,20.46
2018-06-14T19:06:07.234Z,20.34
2018-06-14T19:07:43.753Z,20.39
2018-06-14T19:09:19.616Z,20.29
2018-06-14T19:10:56.312Z,20.23
2018-06-14T19:12:32.180Z,20.19
2018-06-14T19:14:08.755Z,20.09
2018-06-14T19:15:45.462Z,20.11
2018-06-14T19:17:22.479Z,20.05
2018-06-14T19:18:58.976Z,20.04
2018-06-14T19:20:36.642Z,20.00
2018-06-14T19:22:12.625Z,19.95
2018-06-14T19:23:51.077Z,19.86
2018-06-14T19:25:27.047Z,19.73
2018-06-14T19:27:03.662Z,19.76
2018-06-14T19:28:39.352Z,19.69
2018-06-14T19:30:15.261Z,19.64
2018-06-14T19:31:51.984Z,19.63
2018-06-14T19:33:28.005Z,19.74
2018-06-14T19:35:05.871Z,19.77
2018-06-14T19:38:37.800Z,19.40
2018-06-14T19:40:21.947Z,19.02
2018-06-14T19:42:06.286Z,19.29
2018-06-14T19:43:42.214Z,19.27
2018-06-14T19:45:21.779Z,19.18
2018-06-14T19:46:58.897Z,19.13
2018-06-14T19:48:35.621Z,18.98
2018-06-14T19:50:12.748Z,19.00
2018-06-14T19:53:54.659Z,18.78
2018-06-14T19:55:30.879Z,18.67
2018-06-14T19:57:07.222Z,18.60
2018-06-14T19:58:42.949Z,18.52
2018-06-14T20:00:19.450Z,18.47
2018-06-14T20:01:56.014Z,18.51
2018-06-14T20:03:31.934Z,18.60
2018-06-14T20:05:08.105Z,18.54
2018-06-14T20:06:45.847Z,18.50
2018-06-14T20:08:25.571Z,18.49
2018-06-14T20:10:02.607Z,18.50
2018-06-14T20:11:38.670Z,18.52
2018-06-14T20:13:15.788Z,18.55
2018-06-14T20:15:00.571Z,18.63
2018-06-14T20:16:38.393Z,18.68
2018-06-14T20:20:24.111Z,18.79
2018-06-14T20:21:59.923Z,18.78
2018-06-14T20:23:35.748Z,18.77
2018-06-14T20:25:11.843Z,18.79
2018-06-14T20:26:52.186Z,18.81
2018-06-14T20:28:28.118Z,18.83
2018-06-14T20:30:03.717Z,18.81
2018-06-14T20:31:39.563Z,18.82
2018-06-14T20:33:15.259Z,18.81
2018-06-14T20:34:50.969Z,18.79
2018-06-14T20:36:26.672Z,18.77
2018-06-14T20:38:02.413Z,18.75
2018-06-14T20:39:38.240Z,18.73
2018-06-14T20:41:14.297Z,18.78
2018-06-14T20:42:50.026Z,18.80
2018-06-14T20:44:25.866Z,18.92
2018-06-14T20:46:01.696Z,18.93
2018-06-14T20:47:37.481Z,18.88
2018-06-14T20:49:13.303Z,18.93
2018-06-14T20:50:49.297Z,18.87
2018-06-14T20:52:24.968Z,18.92
2018-06-14T20:54:00.970Z,18.88
2018-06-14T20:55:36.964Z,18.88
2018-06-14T20:57:12.918Z,18.89
2018-06-14T20:58:49.455Z,18.84
2018-06-14T21:00:25.250Z,18.79
2018-06-14T21:02:05.003Z,18.77
2018-06-14T21:03:41.503Z,18.81
2018-06-14T21:05:17.579Z,18.79
2018-06-14T21:06:54.271Z,18.71
2018-06-14T21:08:30.564Z,18.66
2018-06-14T21:10:06.350Z,18.58
2018-06-14T21:11:42.126Z,18.49
2018-06-14T21:13:17.929Z,18.38
2018-06-14T21:14:53.693Z,18.32